Time;durP1;ratioP1;P1;durP2;ratioP2;P2;SDS_P1;SDS_P2;PMS_P1;PMS_P2;Temp;Humidity;BMP_temperature;BMP_pressure;BME280_temperature;BME280_humidity;BME280_pressure;Samples;Min_cycle;Max_cycle;Signal;HPM_P1;HPM_P2
2022/04/08 00:00:48;;;;;;;1.50;0.50;;;;;;;6.91;100.00;97632.68;5075085;58;1134974;-72
2022/04/08 00:05:54;;;;;;;1.47;0.90;;;;;;;6.89;100.00;97632.52;5075441;58;1134967;-70
2022/04/08 00:10:59;;;;;;;1.90;1.07;;;;;;;6.87;100.00;97629.27;5075509;58;1135006;-70
2022/04/08 00:16:07;;;;;;;3.10;1.10;;;;;;;6.83;100.00;97634.02;5071200;58;1134856;-72
2022/04/08 00:21:13;;;;;;;1.60;0.57;;;;;;;6.84;99.85;97630.41;5074132;58;1134936;-71
2022/04/08 00:26:19;;;;;;;1.57;0.63;;;;;;;6.88;99.60;97629.07;5074336;58;1130832;-72
2022/04/08 00:31:25;;;;;;;2.07;0.60;;;;;;;6.89;99.27;97618.89;5072142;58;1130818;-73
2022/04/08 00:36:31;;;;;;;1.50;0.90;;;;;;;6.95;98.84;97610.84;5072486;58;1132977;-71
2022/04/08 00:41:36;;;;;;;6.37;1.32;;;;;;;6.95;98.84;97610.84;5068301;58;1134902;-70
2022/04/08 00:46:43;;;;;;;4.03;1.67;;;;;;;6.95;99.00;97617.41;5072224;58;1134875;-71
2022/04/08 00:51:49;;;;;;;6.57;2.07;;;;;;;6.95;99.00;97617.41;5053792;58;1134794;-72
2022/04/08 00:56:55;;;;;;;5.60;1.90;;;;;;;6.93;99.00;97607.06;5125792;57;1134826;-72
2022/04/08 01:02:01;;;;;;;6.87;1.53;;;;;;;6.94;99.15;97611.34;5125871;57;1134978;-72
2022/04/08 01:07:06;;;;;;;3.85;1.20;;;;;;;6.97;99.01;97612.32;5132003;57;1134999;-72
2022/04/08 01:12:13;;;;;;;4.20;1.43;;;;;;;6.96;97.99;97625.13;5148233;57;1132837;-71
2022/04/08 01:17:19;;;;;;;6.23;1.00;;;;;;;7.05;97.14;97620.67;5138675;57;1134861;-73
2022/04/08 01:22:25;;;;;;;7.90;2.10;;;;;;;7.07;95.24;97621.33;5139126;57;1132988;-71
2022/04/08 01:27:31;;;;;;;2.63;0.90;;;;;;;7.10;94.94;97618.86;5138975;57;1134869;-71
2022/04/08 01:32:38;;;;;;;7.00;2.90;;;;;;;7.11;93.72;97616.06;5138868;57;1133276;-72
2022/04/08 01:37:44;;;;;;;10.40;4.97;;;;;;;7.14;93.35;97603.09;4963168;58;1133139;-72
2022/04/08 01:42:50;;;;;;;3.03;0.93;;;;;;;7.16;93.54;97607.19;5138899;57;1135075;-75
2022/04/08 01:47:56;;;;;;;6.07;1.30;;;;;;;7.15;91.73;97605.55;5150403;57;1133155;-72
2022/04/08 01:53:02;;;;;;;5.90;1.80;;;;;;;7.20;92.12;97602.39;5156448;56;1134990;-73
2022/04/08 01:58:08;;;;;;;2.87;0.87;;;;;;;7.19;91.85;97604.20;5132268;57;1132771;-71
2022/04/08 02:03:17;;;;;;;5.67;1.90;;;;;;;7.20;90.92;97597.96;5132017;57;1132700;-71
2022/04/08 02:08:22;;;;;;;2.87;1.00;;;;;;;7.23;91.49;97611.27;5132333;57;1132815;-70
2022/04/08 02:13:28;;;;;;;6.73;0.70;;;;;;;7.23;90.43;97617.34;5132194;57;1132900;-70
2022/04/08 02:18:33;;;;;;;6.00;1.20;;;;;;;7.29;89.75;97625.88;5134106;57;1132738;-71
2022/04/08 02:23:39;;;;;;;3.27;0.93;;;;;;;7.29;90.17;97616.68;5144281;57;1132807;-73
2022/04/08 02:28:46;;;;;;;3.43;1.30;;;;;;;7.28;88.75;97626.05;5144196;57;1132845;-74
2022/04/08 02:33:51;;;;;;;1.90;0.57;;;;;;;7.31;89.72;97626.53;5144343;57;1132586;-74
2022/04/08 02:38:57;;;;;;;1.30;0.80;;;;;;;7.26;90.78;97631.96;5144783;57;1132996;-74
2022/04/08 02:44:03;;;;;;;2.63;0.90;;;;;;;7.19;92.00;97665.15;5149147;57;1132852;-72
2022/04/08 02:49:08;;;;;;;13.53;5.62;;;;;;;7.06;96.44;97635.45;5153093;57;1135041;-73
2022/04/08 02:54:15;;;;;;;76.20;55.57;;;;;;;6.87;98.09;97639.77;5183466;56;1136959;-72
2022/04/08 02:59:20;;;;;;;22.00;17.63;;;;;;;6.77;98.91;97644.36;5218984;56;1139079;-73
2022/04/08 03:04:26;;;;;;;19.30;15.33;;;;;;;6.71;98.98;97651.11;5218849;56;1136926;-69
2022/04/08 03:09:32;;;;;;;35.53;27.97;;;;;;;6.73;98.18;97633.84;5218914;56;1136933;-71
2022/04/08 03:14:38;;;;;;;2.02;1.82;;;;;;;6.73;98.05;97660.93;5218816;56;1137085;-68
2022/04/08 03:19:44;;;;;;;2.77;2.50;;;;;;;6.68;100.00;97685.08;5214007;56;1132712;-70
2022/04/08 03:24:51;;;;;;;14.07;4.30;;;;;;;6.55;100.00;97668.17;5194921;57;1134837;-73
2022/04/08 03:29:57;;;;;;;4.10;2.27;;;;;;;6.45;100.00;97697.68;5194951;57;1136995;-74
2022/04/08 03:35:03;;;;;;;5.57;1.63;;;;;;;6.30;100.00;97711.92;5156100;57;1134913;-72
2022/04/08 03:40:10;;;;;;;3.07;0.93;;;;;;;6.09;100.00;97713.69;5035009;58;1134999;-72
2022/04/08 03:45:16;;;;;;;1.03;0.50;;;;;;;5.99;100.00;97739.22;5035223;58;1134932;-71
2022/04/08 03:50:22;;;;;;;1.97;1.07;;;;;;;5.97;100.00;97744.62;5075879;57;1135120;-72
2022/04/08 03:55:28;;;;;;;3.50;0.67;;;;;;;6.00;100.00;97756.60;5191612;56;1134789;-74
2022/04/08 04:00:33;;;;;;;2.33;0.97;;;;;;;6.08;100.00;97770.27;5219132;56;1132831;-73
2022/04/08 04:05:39;;;;;;;0.73;0.63;;;;;;;6.14;100.00;97778.80;5215934;56;1132854;-71
2022/04/08 04:10:48;;;;;;;0.70;0.70;;;;;;;6.17;100.00;97798.16;5216469;56;1133062;-72
2022/04/08 04:15:53;;;;;;;1.70;0.50;;;;;;;6.16;100.00;97813.09;5216254;56;1132800;-75
2022/04/08 04:20:59;;;;;;;0.87;0.47;;;;;;;6.15;100.00;97831.61;5209945;56;1132835;-74
2022/04/08 04:26:06;;;;;;;0.67;0.53;;;;;;;6.12;100.00;97843.72;5189954;56;1132790;-73
2022/04/08 04:31:11;;;;;;;1.80;0.60;;;;;;;6.01;100.00;97869.75;5009887;58;1132798;-71
2022/04/08 04:36:17;;;;;;;0.55;0.55;;;;;;;5.96;100.00;97881.19;4958153;59;1132805;-72
2022/04/08 04:41:23;;;;;;;2.87;0.60;;;;;;;5.88;100.00;97893.77;5047734;58;1133002;-74
2022/04/08 04:46:28;;;;;;;2.60;0.93;;;;;;;5.79;100.00;97900.41;5141816;57;1132800;-70
2022/04/08 04:51:34;;;;;;;4.60;1.03;;;;;;;5.70;100.00;97925.73;5116854;56;1132798;-73
2022/04/08 04:56:40;;;;;;;2.20;0.93;;;;;;;5.63;100.00;97933.39;5049941;57;1132774;-73
2022/04/08 05:01:46;;;;;;;1.93;0.90;;;;;;;5.63;100.00;97951.75;5057795;57;1133049;-72
2022/04/08 05:06:51;;;;;;;0.73;0.73;;;;;;;5.60;100.00;97961.22;5044795;57;1132814;-73
2022/04/08 05:11:57;;;;;;;3.60;1.30;;;;;;;5.58;100.00;97978.06;5089121;57;1132797;-71
2022/04/08 05:17:03;;;;;;;1.00;0.80;;;;;;;5.58;100.00;97985.45;5065830;57;1132870;-73
2022/04/08 05:22:09;;;;;;;3.00;0.53;;;;;;;5.60;100.00;97991.38;5089701;57;1132985;-71
2022/04/08 05:27:16;;;;;;;1.10;0.70;;;;;;;5.50;100.00;98006.84;5160460;57;1132797;-72
2022/04/08 05:32:22;;;;;;;0.60;0.60;;;;;;;5.32;100.00;98029.09;5160333;57;1130650;-71
2022/04/08 05:37:28;;;;;;;0.63;0.23;;;;;;;5.15;100.00;98056.89;5159932;57;1131000;-69
2022/04/08 05:42:34;;;;;;;0.20;0.20;;;;;;;5.04;100.00;98055.75;5079140;58;1134797;-71
2022/04/08 05:47:40;;;;;;;0.37;0.30;;;;;;;5.01;100.00;98073.09;5108550;55;1134815;-69
2022/04/08 05:52:47;;;;;;;0.37;0.37;;;;;;;5.05;100.00;98060.50;5255554;55;1134824;-71
2022/04/08 18:08:34;;;;;;;13.47;4.93;;;;;;;7.53;74.43;98632.80;5322121;54;46166;-74
2022/04/08 18:13:40;;;;;;;15.33;5.07;;;;;;;7.44;74.96;98641.09;5042211;57;1128848;-73
2022/04/08 18:18:45;;;;;;;68.87;24.70;;;;;;;7.38;75.31;98646.91;4997363;58;1132791;-71
2022/04/08 18:23:51;;;;;;;49.27;15.20;;;;;;;7.35;75.70;98641.93;5015642;57;1135153;-70
2022/04/08 18:28:58;;;;;;;38.50;13.17;;;;;;;7.32;76.01;98645.70;5039715;58;1134868;-71
2022/04/08 18:34:04;;;;;;;25.70;10.47;;;;;;;7.30;76.04;98637.13;5201116;55;1134945;-75
2022/04/08 18:39:11;;;;;;;19.40;8.43;;;;;;;7.25;76.45;98649.04;5087250;57;1135040;-74
2022/04/08 18:44:17;;;;;;;43.70;16.03;;;;;;;7.21;76.65;98658.17;5143271;56;1133039;-77
2022/04/08 18:49:23;;;;;;;42.70;16.90;;;;;;;7.18;76.85;98636.14;5093696;57;1135068;-77
2022/04/08 18:54:29;;;;;;;35.07;12.30;;;;;;;7.12;77.03;98634.91;5080594;57;1134827;-79
2022/04/08 18:59:35;;;;;;;41.23;12.77;;;;;;;7.09;77.20;98640.44;5073362;57;1134884;-70
2022/04/08 19:04:41;;;;;;;41.80;13.77;;;;;;;7.05;77.40;98630.69;5162195;56;1135138;-70
2022/04/08 19:09:47;;;;;;;69.80;28.80;;;;;;;7.00;77.47;98629.48;5093201;57;1134775;-69
2022/04/08 19:14:57;;;;;;;61.10;26.60;;;;;;;7.00;77.64;98626.85;5126680;57;1134916;-76
2022/04/08 19:20:00;;;;;;;49.20;18.27;;;;;;;6.97;77.68;98630.59;5253225;56;1134874;-77
2022/04/08 19:25:07;;;;;;;71.43;23.90;;;;;;;6.97;77.85;98631.07;5228839;56;1133023;-75
2022/04/08 19:30:14;;;;;;;55.50;18.70;;;;;;;6.94;77.99;98626.09;5233300;56;1132154;-76
2022/04/08 19:35:21;;;;;;;76.92;32.17;;;;;;;6.87;78.02;98617.97;5260293;56;1137012;-73
2022/04/08 19:40:27;;;;;;;47.50;20.90;;;;;;;6.88;78.14;98613.52;5182112;56;1136915;-74
2022/04/08 19:45:33;;;;;;;51.77;19.00;;;;;;;6.80;78.27;98620.80;5083705;57;1136876;-75
2022/04/08 19:50:38;;;;;;;182.77;55.40;;;;;;;6.70;78.36;98623.95;5223745;55;1137085;-76
2022/04/08 19:55:44;;;;;;;256.80;79.10;;;;;;;6.64;78.80;98622.70;5083313;57;1138954;-76
2022/04/08 20:00:50;;;;;;;358.38;141.77;;;;;;;6.63;78.96;98616.27;5210518;55;1138970;-77
2022/04/08 20:05:56;;;;;;;172.57;65.37;;;;;;;6.67;79.18;98616.34;5222927;56;1141206;-76
2022/04/08 20:11:03;;;;;;;131.20;47.93;;;;;;;6.70;79.56;98602.93;5240154;56;1139196;-74
2022/04/08 20:16:09;;;;;;;85.30;34.75;;;;;;;6.73;79.23;98591.28;5210844;56;1141089;-75
2022/04/08 20:21:16;;;;;;;46.77;21.73;;;;;;;6.77;79.39;98581.67;5235234;56;1139000;-73
2022/04/08 20:26:22;;;;;;;54.33;26.40;;;;;;;6.74;79.41;98580.64;5241274;56;1139275;-75
2022/04/08 20:31:27;;;;;;;98.47;42.30;;;;;;;6.68;79.35;98566.77;5246619;56;1137202;-75
2022/04/08 20:36:34;;;;;;;102.27;41.13;;;;;;;6.55;79.46;98572.82;5220041;56;1136847;-78
2022/04/08 20:41:40;;;;;;;49.77;21.27;;;;;;;6.43;79.96;98566.88;5273234;56;1138974;-73
2022/04/08 20:46:45;;;;;;;20.97;9.33;;;;;;;6.35;80.29;98553.16;5236256;56;1136881;-74
2022/04/08 20:51:51;;;;;;;44.57;16.60;;;;;;;6.24;80.30;98546.75;5107141;56;1135145;-77
2022/04/08 20:56:57;;;;;;;91.63;31.30;;;;;;;6.16;80.53;98554.95;5044208;57;1136948;-79
2022/04/08 21:02:03;;;;;;;62.97;27.27;;;;;;;6.06;80.48;98546.27;5044385;57;1136999;-75
2022/04/08 21:07:08;;;;;;;54.33;22.57;;;;;;;5.95;80.66;98549.88;5054406;57;1136898;-71
2022/04/08 21:12:14;;;;;;;60.90;25.80;;;;;;;5.87;80.82;98556.23;5127572;57;1136859;-75
2022/04/08 21:17:20;;;;;;;132.23;54.60;;;;;;;5.68;80.33;98553.59;5118165;56;1136963;-73
2022/04/08 21:22:26;;;;;;;52.47;22.67;;;;;;;5.54;80.66;98553.02;5073363;57;1141145;-72
2022/04/08 21:27:32;;;;;;;70.03;33.43;;;;;;;5.46;81.02;98551.58;5121767;57;1139107;-73
2022/04/08 21:32:38;;;;;;;81.57;41.00;;;;;;;5.41;81.43;98555.55;5117597;56;1139606;-73
2022/04/08 21:37:44;;;;;;;52.57;24.77;;;;;;;5.42;81.98;98542.80;5121135;57;1136851;-76
2022/04/08 21:42:51;;;;;;;49.47;25.63;;;;;;;5.47;82.32;98544.54;5076288;57;1136986;-72
2022/04/08 21:47:57;;;;;;;38.03;18.50;;;;;;;5.45;82.12;98549.08;5039792;58;1136811;-75
2022/04/08 21:53:03;;;;;;;62.77;28.47;;;;;;;5.39;82.05;98545.20;5077696;57;1136934;-76
2022/04/08 21:58:09;;;;;;;61.63;27.50;;;;;;;5.29;82.16;98549.59;5040377;58;1136839;-75
2022/04/08 22:03:17;;;;;;;45.77;21.67;;;;;;;5.24;82.35;98548.67;5077954;57;1136956;-75
2022/04/08 22:08:24;;;;;;;49.25;21.52;;;;;;;5.15;82.31;98553.90;5031361;57;1136819;-76
2022/04/08 22:13:30;;;;;;;80.72;35.48;;;;;;;5.07;82.39;98551.09;5225402;56;1137216;-74
2022/04/08 22:18:36;;;;;;;65.53;28.43;;;;;;;4.96;82.45;98555.95;5195037;57;1137031;-73
2022/04/08 22:23:41;;;;;;;70.13;31.77;;;;;;;4.85;82.60;98547.72;5195442;56;1136946;-74
2022/04/08 22:28:48;;;;;;;46.40;21.87;;;;;;;4.92;83.24;98549.31;5195088;57;1136947;-78
2022/04/08 22:33:53;;;;;;;35.50;17.73;;;;;;;5.03;83.46;98547.11;5202866;56;1139092;-73
2022/04/08 22:38:59;;;;;;;149.63;76.10;;;;;;;5.10;83.05;98549.53;5199257;56;1136944;-78
2022/04/08 22:44:05;;;;;;;101.70;49.37;;;;;;;4.99;82.82;98557.02;5198232;56;1139029;-73
2022/04/08 22:49:11;;;;;;;126.77;64.83;;;;;;;4.83;82.84;98548.33;5195062;57;1139125;-74
2022/04/08 22:54:17;;;;;;;50.63;22.87;;;;;;;4.65;83.02;98543.34;5219713;55;1139093;-76
2022/04/08 22:59:23;;;;;;;47.50;21.60;;;;;;;4.62;83.67;98544.07;5228905;55;1134866;-74
2022/04/08 23:04:29;;;;;;;41.10;23.30;;;;;;;4.55;83.63;98545.92;5228939;55;1135049;-77
2022/04/08 23:09:36;;;;;;;38.45;14.90;;;;;;;4.44;83.92;98551.68;5233075;55;1134825;-78
2022/04/08 23:14:42;;;;;;;25.03;11.23;;;;;;;4.34;84.09;98549.02;5242785;55;1134974;-75
2022/04/08 23:19:47;;;;;;;29.93;11.57;;;;;;;4.29;84.25;98544.63;5242808;55;1134995;-73
2022/04/08 23:24:53;;;;;;;30.23;14.93;;;;;;;4.29;84.45;98531.55;5242734;55;1136904;-76
2022/04/08 23:29:59;;;;;;;34.47;13.20;;;;;;;4.28;84.72;98540.36;5242485;55;1134890;-72
2022/04/08 23:35:06;;;;;;;34.20;14.10;;;;;;;4.29;84.81;98539.40;5242726;55;1134876;-76
2022/04/08 23:40:12;;;;;;;41.27;14.83;;;;;;;4.25;84.75;98538.02;5242906;55;1134887;-76
2022/04/08 23:45:18;;;;;;;33.83;16.07;;;;;;;4.22;85.04;98536.95;5242419;55;1134966;-74
2022/04/08 23:50:27;;;;;;;36.40;14.53;;;;;;;4.09;85.01;98522.77;5242675;55;1134859;-73
2022/04/08 23:55:33;;;;;;;38.80;17.47;;;;;;;4.09;85.01;98522.77;5219929;55;1134898;-76
